createdAt,value
2018-09-18T00:00:46.944Z,97633.83
2018-09-18T00:03:15.490Z,97640.22
2018-09-18T00:05:44.038Z,97633.42
2018-09-18T00:08:12.555Z,97632.55
2018-09-18T00:10:41.126Z,97631.27
2018-09-18T00:13:09.671Z,97636.81
2018-09-18T00:15:38.183Z,97631.27
2018-09-18T00:18:06.720Z,97625.70
2018-09-18T00:20:35.283Z,97628.26
2018-09-18T00:23:03.856Z,97628.66
2018-09-18T00:25:32.458Z,97625.25
2018-09-18T00:28:00.997Z,97624.81
2018-09-18T00:30:29.540Z,97631.22
2018-09-18T00:32:58.120Z,97626.53
2018-09-18T00:35:26.699Z,97627.38
2018-09-18T00:37:55.266Z,97628.66
2018-09-18T00:40:23.810Z,97622.69
2018-09-18T00:42:52.356Z,97619.25
2018-09-18T00:45:20.859Z,97621.81
2018-09-18T00:47:49.435Z,97624.38
2018-09-18T00:50:17.945Z,97623.50
2018-09-18T00:52:46.459Z,97620.94
2018-09-18T00:55:14.963Z,97616.25
2018-09-18T00:57:43.505Z,97615.81
2018-09-18T01:00:12.019Z,97614.53
2018-09-18T01:02:40.694Z,97619.66
2018-09-18T01:05:09.246Z,97620.49
2018-09-18T01:07:37.900Z,97619.22
2018-09-18T01:10:06.511Z,97617.93
2018-09-18T01:12:35.047Z,97615.37
2018-09-18T01:15:03.668Z,97615.77
2018-09-18T01:17:32.170Z,97609.81
2018-09-18T01:20:01.527Z,97605.97
2018-09-18T01:22:30.138Z,97605.09
2018-09-18T01:25:16.738Z,97601.20
2018-09-18T01:27:45.245Z,97605.05
2018-09-18T01:30:13.772Z,97603.33
2018-09-18T01:32:42.302Z,97604.56
2018-09-18T01:35:11.883Z,97606.28
2018-09-18T01:37:40.387Z,97607.16
2018-09-18T01:40:08.956Z,97603.28
2018-09-18T01:42:37.610Z,97603.68
2018-09-18T01:45:06.412Z,97608.80
2018-09-18T01:47:35.011Z,97607.52
2018-09-18T01:50:03.576Z,97606.64
2018-09-18T01:52:32.107Z,97609.68
2018-09-18T01:55:00.612Z,97605.84
2018-09-18T01:57:29.206Z,97613.52
2018-09-18T01:59:57.730Z,97610.95
2018-09-18T02:02:26.281Z,97610.08
2018-09-18T02:04:54.828Z,97611.80
2018-09-18T02:07:23.468Z,97612.64
2018-09-18T02:09:52.113Z,97610.95
2018-09-18T02:12:20.634Z,97610.95
2018-09-18T02:14:49.189Z,97613.52
2018-09-18T02:17:17.701Z,97616.03
2018-09-18T02:24:41.251Z,97617.31
2018-09-18T02:27:09.795Z,97615.07
2018-09-18T02:29:38.336Z,97617.18
2018-09-18T02:32:07.117Z,97615.47
2018-09-18T02:34:35.761Z,97608.67
2018-09-18T02:37:04.303Z,97611.62
2018-09-18T02:39:32.883Z,97613.34
2018-09-18T02:42:01.486Z,97605.63
2018-09-18T02:44:30.006Z,97618.42
2018-09-18T02:46:58.591Z,97614.14
2018-09-18T02:49:27.138Z,97617.54
2018-09-18T02:51:55.719Z,97615.81
2018-09-18T02:54:24.251Z,97620.50
2018-09-18T02:56:52.738Z,97620.05
2018-09-18T02:59:22.119Z,97621.73
2018-09-18T03:01:50.635Z,97617.05
2018-09-18T03:04:19.210Z,97619.17
2018-09-18T03:06:47.759Z,97623.49
2018-09-18T03:09:16.342Z,97618.77
2018-09-18T03:11:44.946Z,97621.33
2018-09-18T03:14:13.526Z,97622.21
2018-09-18T03:16:42.111Z,97637.57
2018-09-18T03:19:10.617Z,97610.27
2018-09-18T03:21:39.203Z,97611.98
2018-09-18T03:24:07.765Z,97614.94
2018-09-18T03:26:36.320Z,97611.50
2018-09-18T03:29:04.885Z,97620.05
2018-09-18T03:31:33.452Z,97617.94
2018-09-18T03:34:02.008Z,97617.85
2018-09-18T03:36:30.708Z,97617.05
2018-09-18T03:38:59.322Z,97617.45
2018-09-18T03:41:27.818Z,97620.89
2018-09-18T03:43:56.378Z,97615.73
2018-09-18T03:46:24.915Z,97620.84
2018-09-18T03:48:53.456Z,97620.80
2018-09-18T03:51:22.006Z,97619.92
2018-09-18T03:53:50.531Z,97616.53
2018-09-18T03:56:19.025Z,97615.25
2018-09-18T03:58:47.565Z,97614.41
2018-09-18T04:01:16.126Z,97608.67
2018-09-18T04:03:44.711Z,97611.58
2018-09-18T04:06:13.221Z,97612.81
2018-09-18T04:08:41.741Z,97613.21
2018-09-18T04:11:10.346Z,97614.14
2018-09-18T04:13:38.852Z,97610.30
2018-09-18T04:16:07.369Z,97612.02
2018-09-18T04:18:35.946Z,97615.02
2018-09-18T04:21:04.498Z,97611.67
2018-09-18T04:23:33.088Z,97622.75
2018-09-18T04:26:01.622Z,97628.74
2018-09-18T04:28:30.170Z,97627.91
2018-09-18T04:30:58.788Z,97615.55
2018-09-18T04:33:27.320Z,97622.80
2018-09-18T04:35:55.869Z,97621.55
2018-09-18T04:38:24.395Z,97619.43
2018-09-18T04:40:52.986Z,97627.16
2018-09-18T04:43:21.564Z,97630.99
2018-09-18T04:45:50.161Z,97629.28
2018-09-18T04:48:18.762Z,97631.44
2018-09-18T04:50:47.381Z,97622.48
2018-09-18T04:53:15.990Z,97628.88
2018-09-18T04:55:44.650Z,97631.84
2018-09-18T04:58:13.187Z,97628.83
2018-09-18T05:00:41.770Z,97631.39
2018-09-18T05:03:10.322Z,97634.35
2018-09-18T05:05:38.857Z,97634.35
2018-09-18T05:08:07.404Z,97640.75
2018-09-18T05:10:35.964Z,97636.47
2018-09-18T05:13:04.527Z,97645.47
2018-09-18T05:15:33.178Z,97647.19
2018-09-18T05:18:01.689Z,97650.49
2018-09-18T05:20:30.280Z,97639.24
2018-09-18T05:22:58.815Z,97639.59
2018-09-18T05:25:27.356Z,97642.02
2018-09-18T05:27:55.847Z,97644.04
2018-09-18T05:30:24.467Z,97641.00
2018-09-18T05:32:53.011Z,97645.47
2018-09-18T05:35:21.589Z,97650.96
2018-09-18T05:37:50.153Z,97643.33
2018-09-18T05:40:18.651Z,97644.80
2018-09-18T05:42:47.183Z,97642.56
2018-09-18T05:45:15.783Z,97640.59
2018-09-18T05:47:44.329Z,97648.05
2018-09-18T05:50:12.833Z,97649.94
2018-09-18T05:52:41.390Z,97653.70
2018-09-18T05:55:09.949Z,97656.16
2018-09-18T05:57:38.481Z,97659.50
2018-09-18T06:00:06.971Z,97666.31
2018-09-18T06:02:35.457Z,97664.61
2018-09-18T06:05:04.148Z,97665.38
2018-09-18T06:07:32.638Z,97629.70
2018-09-18T06:10:01.262Z,97663.53
2018-09-18T06:12:29.904Z,97667.70
2018-09-18T06:14:58.405Z,97666.77
2018-09-18T06:17:26.974Z,97668.87
2018-09-18T06:19:55.566Z,97676.42
2018-09-18T06:22:24.130Z,97683.08
2018-09-18T06:24:52.655Z,97685.95
2018-09-18T06:27:21.244Z,97682.17
2018-09-18T06:29:49.744Z,97682.13
2018-09-18T06:32:18.331Z,97683.39
2018-09-18T06:34:46.923Z,97679.45
2018-09-18T06:37:15.509Z,97683.67
2018-09-18T06:39:44.059Z,97684.67
2018-09-18T06:42:12.684Z,97681.35
2018-09-18T06:44:41.224Z,97683.30
2018-09-18T06:47:09.720Z,97688.63
2018-09-18T06:49:38.207Z,97694.73
2018-09-18T06:52:06.717Z,97691.34
2018-09-18T06:54:35.315Z,97692.63
2018-09-18T06:57:03.765Z,97698.44
2018-09-18T06:59:32.253Z,97687.47
2018-09-18T07:02:00.747Z,97698.73
2018-09-18T07:04:29.266Z,97702.33
2018-09-18T07:06:57.753Z,97704.48
2018-09-18T07:09:26.254Z,97702.05
2018-09-18T07:11:54.750Z,97697.34
2018-09-18T07:14:23.291Z,97699.50
2018-09-18T07:16:51.838Z,97700.06
2018-09-18T07:19:20.421Z,97698.84
2018-09-18T07:21:48.914Z,97696.89
2018-09-18T07:24:17.418Z,97702.44
2018-09-18T07:26:46.219Z,97701.98
2018-09-18T07:29:14.714Z,97703.75
2018-09-18T07:31:43.188Z,97706.23
2018-09-18T07:34:11.789Z,97691.52
2018-09-18T07:36:40.367Z,97696.28
2018-09-18T07:39:10.619Z,97699.36
2018-09-18T07:41:39.113Z,97704.19
2018-09-18T07:44:07.595Z,97711.55
2018-09-18T07:46:36.075Z,97708.33
2018-09-18T07:49:05.505Z,97747.64
2018-09-18T07:51:34.874Z,96942.63
2018-09-18T07:54:04.076Z,97704.41
2018-09-18T07:56:33.006Z,97706.18
2018-09-18T07:59:02.495Z,97702.80
2018-09-18T08:01:31.887Z,97694.00
2018-09-18T08:04:00.687Z,97693.30
2018-09-18T08:06:29.518Z,97688.30
2018-09-18T08:08:58.336Z,97693.02
2018-09-18T08:11:26.969Z,97690.22
2018-09-18T08:13:55.496Z,97690.77
2018-09-18T08:16:24.080Z,97689.53
2018-09-18T08:18:52.764Z,97687.86
2018-09-18T08:21:21.183Z,97687.51
2018-09-18T08:23:49.754Z,97687.22
2018-09-18T08:26:18.294Z,97695.47
2018-09-18T08:28:47.591Z,97696.46
2018-09-18T08:31:16.212Z,97696.95
2018-09-18T08:33:44.711Z,97699.12
2018-09-18T08:36:13.191Z,97694.93
2018-09-18T08:38:41.749Z,97685.63
2018-09-18T08:41:10.251Z,97690.36
2018-09-18T08:43:38.746Z,97687.40
2018-09-18T08:46:07.259Z,97693.92
2018-09-18T08:48:35.833Z,97687.98
2018-09-18T08:51:04.406Z,97691.45
2018-09-18T08:53:32.958Z,97691.91
2018-09-18T08:56:01.635Z,97693.71
2018-09-18T08:58:30.150Z,97693.77
2018-09-18T09:00:58.662Z,97689.97
2018-09-18T09:03:27.183Z,97683.58
2018-09-18T09:05:55.784Z,97679.38
2018-09-18T09:08:24.295Z,97683.22
2018-09-18T09:10:52.808Z,97684.50
2018-09-18T09:13:21.294Z,97684.06
2018-09-18T09:15:49.796Z,97681.50
2018-09-18T09:18:18.359Z,97681.16
2018-09-18T09:20:46.959Z,97686.27
2018-09-18T09:23:15.451Z,97677.36
2018-09-18T09:25:44.050Z,97679.05
2018-09-18T09:28:12.676Z,97678.14
2018-09-18T09:30:41.382Z,97672.24
2018-09-18T09:33:09.955Z,97669.23
2018-09-18T09:35:38.509Z,97670.13
2018-09-18T09:38:07.130Z,97666.73
2018-09-18T09:40:35.666Z,97668.45
2018-09-18T09:43:04.221Z,97669.33
2018-09-18T09:45:32.869Z,97666.03
2018-09-18T09:48:01.435Z,97658.35
2018-09-18T09:50:30.012Z,97663.06
2018-09-18T09:52:58.572Z,97659.23
2018-09-18T09:55:27.117Z,97651.08
2018-09-18T09:57:55.762Z,97650.27
2018-09-18T10:00:29.440Z,97651.59
2018-09-18T10:02:58.131Z,97649.48
2018-09-18T10:05:26.912Z,97650.77
2018-09-18T10:07:55.486Z,97538.74
2018-09-18T10:10:24.122Z,97648.66
2018-09-18T10:12:52.758Z,97654.25
2018-09-18T10:15:21.580Z,97647.02
2018-09-18T10:17:50.172Z,97643.58
2018-09-18T10:20:19.732Z,97647.02
2018-09-18T10:22:48.347Z,97644.05
2018-09-18T10:25:16.971Z,97644.45
2018-09-18T10:27:45.584Z,97644.91
2018-09-18T10:30:14.172Z,97644.10
2018-09-18T10:32:43.489Z,97641.54
2018-09-18T10:35:12.125Z,97641.54
2018-09-18T10:37:40.715Z,97633.91
2018-09-18T10:40:09.372Z,97642.91
2018-09-18T10:42:37.992Z,97639.07
2018-09-18T10:45:07.618Z,97636.03
2018-09-18T10:47:36.291Z,97630.91
2018-09-18T10:50:05.043Z,97624.99
2018-09-18T10:52:33.664Z,97621.59
2018-09-18T10:55:02.348Z,97625.03
2018-09-18T10:57:31.026Z,97624.56
2018-09-18T10:59:59.646Z,97621.59
2018-09-18T11:02:29.632Z,97625.44
2018-09-18T11:04:58.181Z,97622.87
2018-09-18T11:07:26.789Z,97618.25
2018-09-18T11:09:55.464Z,97619.12
2018-09-18T11:12:24.071Z,97619.53
2018-09-18T11:14:52.736Z,97619.08
2018-09-18T11:17:21.311Z,97617.80
2018-09-18T11:19:49.922Z,97619.48
2018-09-18T11:22:18.619Z,97618.20
2018-09-18T11:24:47.131Z,97616.97
2018-09-18T11:27:15.722Z,97619.96
2018-09-18T11:29:44.289Z,97621.69
2018-09-18T11:32:12.895Z,97617.84
2018-09-18T11:34:41.617Z,97618.25
2018-09-18T11:37:10.254Z,97618.29
2018-09-18T11:39:39.840Z,97608.48
2018-09-18T11:42:08.407Z,97617.48
2018-09-18T11:44:36.998Z,97615.73
2018-09-18T11:47:05.592Z,97611.05
2018-09-18T11:49:34.272Z,97606.77
2018-09-18T11:52:02.844Z,97605.97
2018-09-18T11:54:31.415Z,97605.53
2018-09-18T11:57:00.024Z,97598.33
2018-09-18T11:59:28.604Z,97602.17
2018-09-18T12:01:57.218Z,97604.30
2018-09-18T12:04:25.807Z,97596.17
2018-09-18T12:06:54.436Z,97591.45
2018-09-18T12:09:22.990Z,97585.94
2018-09-18T12:11:51.594Z,97590.66
2018-09-18T12:14:20.152Z,97582.97
2018-09-18T12:16:48.758Z,97586.38
2018-09-18T12:19:17.329Z,97577.42
2018-09-18T12:21:45.931Z,97574.02
2018-09-18T12:24:15.034Z,97572.30
2018-09-18T12:26:43.748Z,97577.02
2018-09-18T12:29:12.387Z,97583.02
2018-09-18T12:31:40.906Z,97576.62
2018-09-18T12:34:09.528Z,97572.30
2018-09-18T12:36:38.354Z,97568.94
2018-09-18T12:39:08.675Z,97560.78
2018-09-18T12:41:37.630Z,97562.90
2018-09-18T12:44:06.252Z,97557.82
2018-09-18T12:46:35.435Z,97554.86
2018-09-18T12:49:03.951Z,97557.86
2018-09-18T12:51:32.505Z,97558.27
2018-09-18T12:54:01.178Z,97560.38
2018-09-18T12:56:29.743Z,97553.94
2018-09-18T12:58:58.409Z,97550.98
2018-09-18T13:01:26.900Z,97544.14
2018-09-18T13:03:56.531Z,97549.30
2018-09-18T13:06:25.299Z,97539.91
2018-09-18T13:08:53.754Z,97538.66
2018-09-18T13:11:22.350Z,97535.22
2018-09-18T13:13:50.842Z,97529.70
2018-09-18T13:16:19.383Z,97529.30
2018-09-18T13:18:47.883Z,97527.55
2018-09-18T13:21:16.359Z,97523.70
2018-09-18T13:23:44.901Z,97519.87
2018-09-18T13:26:13.383Z,97519.87
2018-09-18T13:28:41.854Z,97520.30
2018-09-18T13:31:10.338Z,97524.98
2018-09-18T13:33:38.817Z,97516.03
2018-09-18T13:36:07.295Z,97522.02
2018-09-18T13:38:35.782Z,97516.03
2018-09-18T13:41:04.377Z,97516.46
2018-09-18T13:43:32.769Z,97509.19
2018-09-18T13:46:01.258Z,97507.50
2018-09-18T13:48:29.776Z,97507.06
2018-09-18T13:50:58.278Z,97504.06
2018-09-18T13:53:26.778Z,97502.38
2018-09-18T13:55:55.262Z,97499.83
2018-09-18T13:58:23.755Z,97496.87
2018-09-18T14:00:52.234Z,97494.74
2018-09-18T14:03:20.716Z,97491.70
2018-09-18T14:05:49.190Z,97490.43
2018-09-18T14:08:17.759Z,97486.59
2018-09-18T14:10:46.201Z,97485.75
2018-09-18T14:13:14.702Z,97492.59
2018-09-18T14:15:43.181Z,97487.88
2018-09-18T14:18:11.694Z,97487.02
2018-09-18T14:20:40.215Z,97484.91
2018-09-18T14:23:08.674Z,97487.88
2018-09-18T14:25:37.192Z,97485.31
2018-09-18T14:28:05.681Z,97483.99
2018-09-18T14:30:34.168Z,97483.19
2018-09-18T14:33:02.683Z,97479.34
2018-09-18T14:35:31.367Z,97476.78
2018-09-18T14:38:00.100Z,97472.95
2018-09-18T14:40:28.829Z,97469.95
2018-09-18T14:42:57.516Z,97466.11
2018-09-18T14:45:26.177Z,97470.38
2018-09-18T14:47:54.659Z,97467.39
2018-09-18T14:50:23.168Z,97465.27
2018-09-18T14:52:51.675Z,97466.11
2018-09-18T14:55:20.343Z,97465.30
2018-09-18T14:57:48.879Z,97465.30
2018-09-18T15:00:17.502Z,97457.11
2018-09-18T15:02:46.052Z,97456.71
2018-09-18T15:05:14.635Z,97454.15
2018-09-18T15:07:43.146Z,97459.67
2018-09-18T15:10:11.626Z,97457.08
2018-09-18T15:12:40.140Z,97454.55
2018-09-18T15:15:08.688Z,97454.19
2018-09-18T15:17:37.283Z,97447.75
2018-09-18T15:20:05.771Z,97446.47
2018-09-18T15:22:34.302Z,97440.48
2018-09-18T15:25:02.803Z,97443.88
2018-09-18T15:27:31.343Z,97442.63
2018-09-18T15:29:59.821Z,97443.91
2018-09-18T15:32:28.336Z,97442.19
2018-09-18T15:34:56.985Z,97446.88
2018-09-18T15:37:25.535Z,97451.99
2018-09-18T15:39:54.022Z,97451.11
2018-09-18T15:42:22.535Z,97448.19
2018-09-18T15:44:51.023Z,97448.11
2018-09-18T15:47:19.521Z,97451.55
2018-09-18T15:49:48.182Z,97446.44
2018-09-18T15:52:16.720Z,97445.59
2018-09-18T15:54:45.246Z,97439.16
2018-09-18T15:57:13.782Z,97445.16
2018-09-18T15:59:42.298Z,97439.63
2018-09-18T16:02:11.065Z,97434.03
2018-09-18T16:04:39.570Z,97434.91
2018-09-18T16:07:08.073Z,97433.23
2018-09-18T16:09:36.573Z,97438.35
2018-09-18T16:12:05.064Z,97425.08
2018-09-18T16:14:33.589Z,97436.64
2018-09-18T16:17:02.144Z,97431.95
2018-09-18T16:19:30.644Z,97430.27
2018-09-18T16:21:59.168Z,97429.00
2018-09-18T16:24:27.777Z,97428.59
2018-09-18T16:26:56.278Z,97422.99
2018-09-18T16:29:25.277Z,97424.67
2018-09-18T16:31:53.805Z,97423.84
2018-09-18T16:34:22.384Z,97428.52
2018-09-18T16:36:51.004Z,97431.91
2018-09-18T16:39:19.520Z,97435.79
2018-09-18T16:41:47.999Z,97434.52
2018-09-18T16:44:16.485Z,97440.00
2018-09-18T16:46:45.030Z,97440.40
2018-09-18T16:49:13.543Z,97448.55
2018-09-18T16:51:42.049Z,97443.43
2018-09-18T16:54:10.539Z,97445.98
2018-09-18T16:56:39.072Z,97448.59
2018-09-18T16:59:07.547Z,97453.27
2018-09-18T17:01:36.085Z,97451.55
2018-09-18T17:04:04.552Z,97451.95
2018-09-18T17:06:33.111Z,97454.52
2018-09-18T17:09:01.567Z,97452.39
2018-09-18T17:11:30.047Z,97457.51
2018-09-18T17:13:58.544Z,97458.83
2018-09-18T17:16:27.033Z,97461.35
2018-09-18T17:18:55.553Z,97457.51
2018-09-18T17:21:24.032Z,97467.79
2018-09-18T17:23:52.501Z,97464.34
2018-09-18T17:26:21.002Z,97467.75
2018-09-18T17:28:49.651Z,97466.03
2018-09-18T17:31:18.004Z,97462.67
2018-09-18T17:33:46.477Z,97466.51
2018-09-18T17:36:14.948Z,97466.91
2018-09-18T17:38:43.422Z,97469.87
2018-09-18T17:41:11.920Z,97475.87
2018-09-18T17:43:40.429Z,97483.14
2018-09-18T17:46:08.978Z,97480.98
2018-09-18T17:48:37.499Z,97490.39
2018-09-18T17:51:07.125Z,97491.23
2018-09-18T17:53:35.844Z,97497.98
2018-09-18T17:56:04.566Z,97509.98
2018-09-18T17:58:33.172Z,97510.83
2018-09-18T18:01:01.722Z,97515.55
2018-09-18T18:03:30.247Z,97513.02
2018-09-18T18:05:59.845Z,97514.79
2018-09-18T18:08:28.656Z,97518.19
2018-09-18T18:10:57.314Z,97522.42
2018-09-18T18:13:26.059Z,97525.42
2018-09-18T18:15:54.657Z,97527.98
2018-09-18T18:18:23.228Z,97528.42
2018-09-18T18:20:51.861Z,97533.55
2018-09-18T18:23:20.436Z,97537.47
2018-09-18T18:25:49.042Z,97540.91
2018-09-18T18:28:17.677Z,97544.78
2018-09-18T18:30:46.250Z,97543.47
2018-09-18T18:33:14.910Z,97553.27
2018-09-18T18:35:43.546Z,97557.98
2018-09-18T18:38:12.197Z,97556.66
2018-09-18T18:40:40.866Z,97559.67
2018-09-18T18:43:09.454Z,97560.19
2018-09-18T18:45:38.987Z,97566.11
2018-09-18T18:48:09.616Z,97570.38
2018-09-18T18:50:39.780Z,97574.18
2018-09-18T18:53:08.604Z,97581.91
2018-09-18T18:55:37.415Z,97581.06
2018-09-18T18:58:06.150Z,97593.03
2018-09-18T19:00:35.637Z,97592.23
2018-09-18T19:03:05.887Z,97598.16
2018-09-18T19:05:36.136Z,97600.75
2018-09-18T19:08:05.562Z,97596.52
2018-09-18T19:10:34.448Z,97606.75
2018-09-18T19:13:03.962Z,97604.55
2018-09-18T19:15:32.872Z,97607.95
2018-09-18T19:18:02.531Z,97616.08
2018-09-18T19:20:31.535Z,97618.14
2018-09-18T19:23:01.814Z,97619.38
2018-09-18T19:25:30.747Z,97624.50
2018-09-18T19:28:01.157Z,97628.30
2018-09-18T19:30:30.445Z,97627.91
2018-09-18T19:33:00.376Z,97626.14
2018-09-18T19:35:29.128Z,97624.42
2018-09-18T19:38:00.532Z,97627.42
2018-09-18T19:40:29.917Z,97631.27
2018-09-18T19:42:58.918Z,97627.86
2018-09-18T19:45:27.833Z,97625.30
2018-09-18T19:47:56.997Z,97627.42
2018-09-18T19:50:26.046Z,97624.42
2018-09-18T19:52:57.504Z,97630.81
2018-09-18T19:55:26.634Z,97637.22
2018-09-18T19:57:55.455Z,97632.50
2018-09-18T20:00:24.275Z,97645.34
2018-09-18T20:02:52.833Z,97646.17
2018-09-18T20:05:21.411Z,97643.62
2018-09-18T20:07:49.882Z,97641.94
2018-09-18T20:10:18.427Z,97648.38
2018-09-18T20:12:46.990Z,97656.10
2018-09-18T20:15:15.482Z,97650.94
2018-09-18T20:17:44.015Z,97653.06
2018-09-18T20:20:12.534Z,97659.90
2018-09-18T20:22:41.043Z,97661.98
2018-09-18T20:25:09.531Z,97666.70
2018-09-18T20:27:38.095Z,97666.66
2018-09-18T20:30:06.945Z,97671.78
2018-09-18T20:32:35.480Z,97670.09
2018-09-18T20:35:04.003Z,97673.55
2018-09-18T20:37:32.586Z,97675.70
2018-09-18T20:40:01.158Z,97678.22
2018-09-18T20:42:29.718Z,97674.78
2018-09-18T20:44:58.279Z,97688.45
2018-09-18T20:47:26.839Z,97691.85
2018-09-18T20:49:55.355Z,97695.27
2018-09-18T20:52:23.917Z,97698.30
2018-09-18T20:54:52.468Z,97691.47
2018-09-18T20:57:20.996Z,97685.90
2018-09-18T20:59:49.532Z,97683.34
2018-09-18T21:02:18.024Z,97688.06
2018-09-18T21:04:46.569Z,97694.03
2018-09-18T21:07:15.132Z,97684.22
2018-09-18T21:09:43.624Z,97682.98
2018-09-18T21:12:12.142Z,97681.23
2018-09-18T21:14:40.660Z,97680.42
2018-09-18T21:17:09.177Z,97676.11
2018-09-18T21:19:37.701Z,97680.83
2018-09-18T21:22:06.282Z,97678.67
2018-09-18T21:24:34.831Z,97685.55
2018-09-18T21:27:03.351Z,97687.23
2018-09-18T21:29:31.886Z,97691.94
2018-09-18T21:32:00.427Z,97688.91
2018-09-18T21:34:28.940Z,97692.39
2018-09-18T21:36:57.433Z,97693.22
2018-09-18T21:39:25.995Z,97691.52
2018-09-18T21:41:54.479Z,97691.11
2018-09-18T21:44:23.005Z,97689.38
2018-09-18T21:46:51.535Z,97691.52
2018-09-18T21:49:20.070Z,97693.22
2018-09-18T21:51:48.608Z,97692.79
2018-09-18T21:54:17.097Z,97700.95
2018-09-18T21:56:45.635Z,97700.07
2018-09-18T21:59:14.180Z,97699.63
2018-09-18T22:01:42.705Z,97708.98
2018-09-18T22:04:11.203Z,97708.59
2018-09-18T22:06:39.772Z,97711.19
2018-09-18T22:09:08.332Z,97711.99
2018-09-18T22:11:36.911Z,97719.27
2018-09-18T22:14:05.445Z,97715.03
2018-09-18T22:16:33.955Z,97718.03
2018-09-18T22:19:02.486Z,97715.47
2018-09-18T22:21:31.006Z,97719.31
2018-09-18T22:23:59.534Z,97709.48
2018-09-18T22:26:28.062Z,97708.24
2018-09-18T22:28:56.593Z,97703.59
2018-09-18T22:31:25.104Z,97701.88
2018-09-18T22:33:53.674Z,97708.72
2018-09-18T22:36:22.155Z,97719.81
2018-09-18T22:38:50.737Z,97715.13
2018-09-18T22:41:19.256Z,97719.36
2018-09-18T22:43:47.768Z,97714.24
2018-09-18T22:46:16.320Z,97715.92
2018-09-18T22:48:44.848Z,97717.64
2018-09-18T22:51:13.402Z,97714.59
2018-09-18T22:53:43.045Z,97717.16
2018-09-18T22:56:11.617Z,97714.59
2018-09-18T22:58:40.183Z,97706.87
2018-09-18T23:01:08.698Z,97707.30
2018-09-18T23:03:37.270Z,97709.43
2018-09-18T23:06:05.794Z,97713.27
2018-09-18T23:08:34.294Z,97711.99
2018-09-18T23:11:02.817Z,97720.55
2018-09-18T23:13:31.309Z,97722.67
2018-09-18T23:15:59.831Z,97736.27
2018-09-18T23:18:28.360Z,97735.03
2018-09-18T23:20:56.896Z,97738.83
2018-09-18T23:23:25.414Z,97735.87
2018-09-18T23:25:53.885Z,97738.42
2018-09-18T23:28:22.407Z,97733.75
2018-09-18T23:30:50.923Z,97729.06
2018-09-18T23:33:19.457Z,97722.71
2018-09-18T23:35:48.012Z,97720.55
2018-09-18T23:38:16.545Z,97719.67
2018-09-18T23:40:51.863Z,97729.06
2018-09-18T23:43:20.418Z,97728.19
2018-09-18T23:45:48.957Z,97731.63
2018-09-18T23:48:17.458Z,97729.06
2018-09-18T23:50:45.997Z,97737.19
2018-09-18T23:53:14.502Z,97740.59
2018-09-18T23:55:43.070Z,97742.71
2018-09-18T23:58:11.578Z,97736.75
